sensor_id;sensor_type;location;lat;lon;timestamp;temperature;humidity
17567;DHT22;8901;52.088;5.084;2022-10-18T00:04:05;16.80;99.90
17567;DHT22;8901;52.088;5.084;2022-10-18T00:06:32;16.70;99.90
17567;DHT22;8901;52.088;5.084;2022-10-18T00:12:23;16.60;99.90
17567;DHT22;8901;52.088;5.084;2022-10-18T00:15:21;16.50;99.90
17567;DHT22;8901;52.088;5.084;2022-10-18T00:17:50;16.50;99.90
17567;DHT22;8901;52.088;5.084;2022-10-18T00:20:28;16.40;99.90
17567;DHT22;8901;52.088;5.084;2022-10-18T00:23:05;16.40;99.90
17567;DHT22;8901;52.088;5.084;2022-10-18T00:25:34;16.40;99.90
17567;DHT22;8901;52.088;5.084;2022-10-18T00:31:18;16.40;99.90
17567;DHT22;8901;52.088;5.084;2022-10-18T00:34:04;16.40;99.90
17567;DHT22;8901;52.088;5.084;2022-10-18T00:36:40;16.40;99.90
17567;DHT22;8901;52.088;5.084;2022-10-18T00:42:59;16.20;99.90
17567;DHT22;8901;52.088;5.084;2022-10-18T00:52:07;16.10;99.90
17567;DHT22;8901;52.088;5.084;2022-10-18T01:01:09;16.10;99.90
17567;DHT22;8901;52.088;5.084;2022-10-18T01:03:57;16.10;99.90
17567;DHT22;8901;52.088;5.084;2022-10-18T01:06:25;16.30;99.90
17567;DHT22;8901;52.088;5.084;2022-10-18T01:12:28;16.20;99.90
17567;DHT22;8901;52.088;5.084;2022-10-18T01:15:04;16.10;99.90
17567;DHT22;8901;52.088;5.084;2022-10-18T01:17:53;16.10;99.90
17567;DHT22;8901;52.088;5.084;2022-10-18T01:27:03;16.10;99.90
17567;DHT22;8901;52.088;5.084;2022-10-18T01:32:52;16.20;99.90
17567;DHT22;8901;52.088;5.084;2022-10-18T01:35:56;16.10;99.90
17567;DHT22;8901;52.088;5.084;2022-10-18T01:38:25;15.90;99.90
17567;DHT22;8901;52.088;5.084;2022-10-18T01:40:54;15.70;99.90
17567;DHT22;8901;52.088;5.084;2022-10-18T01:43:23;15.50;99.90
17567;DHT22;8901;52.088;5.084;2022-10-18T01:45:52;15.60;99.90
17567;DHT22;8901;52.088;5.084;2022-10-18T01:48:22;15.80;99.90
17567;DHT22;8901;52.088;5.084;2022-10-18T01:50:50;15.70;99.90
17567;DHT22;8901;52.088;5.084;2022-10-18T01:53:25;15.70;99.90
17567;DHT22;8901;52.088;5.084;2022-10-18T01:56:04;16.00;99.90
17567;DHT22;8901;52.088;5.084;2022-10-18T01:58:41;15.90;99.90
17567;DHT22;8901;52.088;5.084;2022-10-18T02:01:16;15.70;99.90
17567;DHT22;8901;52.088;5.084;2022-10-18T02:03:47;15.60;99.90
17567;DHT22;8901;52.088;5.084;2022-10-18T02:06:20;15.60;99.90
17567;DHT22;8901;52.088;5.084;2022-10-18T02:12:12;15.70;99.90
17567;DHT22;8901;52.088;5.084;2022-10-18T02:14:41;15.60;99.90
17567;DHT22;8901;52.088;5.084;2022-10-18T02:17:10;15.40;99.90
17567;DHT22;8901;52.088;5.084;2022-10-18T02:19:42;15.20;99.90
17567;DHT22;8901;52.088;5.084;2022-10-18T02:22:10;15.30;99.90
17567;DHT22;8901;52.088;5.084;2022-10-18T02:24:39;15.40;99.90
17567;DHT22;8901;52.088;5.084;2022-10-18T02:27:07;15.40;99.90
17567;DHT22;8901;52.088;5.084;2022-10-18T02:29:35;15.50;99.90
17567;DHT22;8901;52.088;5.084;2022-10-18T02:32:06;15.50;99.90
17567;DHT22;8901;52.088;5.084;2022-10-18T02:34:37;15.40;99.90
17567;DHT22;8901;52.088;5.084;2022-10-18T02:37:08;15.40;99.90
17567;DHT22;8901;52.088;5.084;2022-10-18T02:39:38;15.40;99.90
17567;DHT22;8901;52.088;5.084;2022-10-18T02:42:08;15.40;99.90
17567;DHT22;8901;52.088;5.084;2022-10-18T02:44:36;15.30;99.90
17567;DHT22;8901;52.088;5.084;2022-10-18T02:47:04;15.30;99.90
17567;DHT22;8901;52.088;5.084;2022-10-18T02:49:31;15.30;99.90
17567;DHT22;8901;52.088;5.084;2022-10-18T02:51:58;15.30;99.90
17567;DHT22;8901;52.088;5.084;2022-10-18T02:54:26;15.20;99.90
17567;DHT22;8901;52.088;5.084;2022-10-18T02:56:53;15.20;99.90
17567;DHT22;8901;52.088;5.084;2022-10-18T02:59:20;15.20;99.90
17567;DHT22;8901;52.088;5.084;2022-10-18T03:01:47;15.20;99.90
17567;DHT22;8901;52.088;5.084;2022-10-18T03:04:14;15.20;99.90
17567;DHT22;8901;52.088;5.084;2022-10-18T03:06:41;15.20;99.90
17567;DHT22;8901;52.088;5.084;2022-10-18T03:09:08;15.20;99.90
17567;DHT22;8901;52.088;5.084;2022-10-18T03:11:37;15.10;99.90
17567;DHT22;8901;52.088;5.084;2022-10-18T03:14:04;15.20;99.90
17567;DHT22;8901;52.088;5.084;2022-10-18T03:16:31;15.20;99.90
17567;DHT22;8901;52.088;5.084;2022-10-18T03:18:58;15.10;99.90
17567;DHT22;8901;52.088;5.084;2022-10-18T03:21:25;15.10;99.90
17567;DHT22;8901;52.088;5.084;2022-10-18T03:23:52;15.10;99.90
17567;DHT22;8901;52.088;5.084;2022-10-18T03:26:19;15.10;99.90
17567;DHT22;8901;52.088;5.084;2022-10-18T03:28:47;15.10;99.90
17567;DHT22;8901;52.088;5.084;2022-10-18T03:31:14;15.10;99.90
17567;DHT22;8901;52.088;5.084;2022-10-18T03:33:41;15.00;99.90
17567;DHT22;8901;52.088;5.084;2022-10-18T03:36:08;15.10;99.90
17567;DHT22;8901;52.088;5.084;2022-10-18T03:38:35;15.10;99.90
17567;DHT22;8901;52.088;5.084;2022-10-18T03:41:02;15.00;99.90
17567;DHT22;8901;52.088;5.084;2022-10-18T03:43:28;15.00;99.90
17567;DHT22;8901;52.088;5.084;2022-10-18T03:45:57;15.00;99.90
17567;DHT22;8901;52.088;5.084;2022-10-18T03:48:24;15.10;99.90
17567;DHT22;8901;52.088;5.084;2022-10-18T03:50:51;15.10;99.90
17567;DHT22;8901;52.088;5.084;2022-10-18T03:53:18;15.10;99.90
17567;DHT22;8901;52.088;5.084;2022-10-18T03:55:49;15.00;99.90
17567;DHT22;8901;52.088;5.084;2022-10-18T03:58:17;15.00;99.90
17567;DHT22;8901;52.088;5.084;2022-10-18T04:00:44;15.00;99.90
17567;DHT22;8901;52.088;5.084;2022-10-18T04:03:12;14.90;99.90
17567;DHT22;8901;52.088;5.084;2022-10-18T04:05:39;14.90;99.90
17567;DHT22;8901;52.088;5.084;2022-10-18T04:08:06;14.90;99.90
17567;DHT22;8901;52.088;5.084;2022-10-18T04:13:41;14.80;99.90
17567;DHT22;8901;52.088;5.084;2022-10-18T04:16:07;14.70;99.90
17567;DHT22;8901;52.088;5.084;2022-10-18T04:18:36;14.70;99.90
17567;DHT22;8901;52.088;5.084;2022-10-18T04:21:03;14.70;99.90
17567;DHT22;8901;52.088;5.084;2022-10-18T04:23:30;14.70;99.90
17567;DHT22;8901;52.088;5.084;2022-10-18T04:28:24;14.70;99.90
17567;DHT22;8901;52.088;5.084;2022-10-18T04:30:51;14.70;99.90
17567;DHT22;8901;52.088;5.084;2022-10-18T04:33:19;14.70;99.90
17567;DHT22;8901;52.088;5.084;2022-10-18T04:35:50;14.70;99.90
17567;DHT22;8901;52.088;5.084;2022-10-18T04:38:17;14.70;99.90
17567;DHT22;8901;52.088;5.084;2022-10-18T04:40:44;14.70;99.90
17567;DHT22;8901;52.088;5.084;2022-10-18T04:43:11;14.70;99.90
17567;DHT22;8901;52.088;5.084;2022-10-18T04:45:38;14.60;99.90
17567;DHT22;8901;52.088;5.084;2022-10-18T04:48:05;14.60;99.90
17567;DHT22;8901;52.088;5.084;2022-10-18T04:50:32;14.60;99.90
17567;DHT22;8901;52.088;5.084;2022-10-18T04:53:01;14.60;99.90
17567;DHT22;8901;52.088;5.084;2022-10-18T04:55:28;14.60;99.90
17567;DHT22;8901;52.088;5.084;2022-10-18T04:57:55;14.60;99.90
17567;DHT22;8901;52.088;5.084;2022-10-18T05:00:21;14.40;99.90
17567;DHT22;8901;52.088;5.084;2022-10-18T05:02:48;14.40;99.90
17567;DHT22;8901;52.088;5.084;2022-10-18T05:05:15;14.60;99.90
17567;DHT22;8901;52.088;5.084;2022-10-18T05:07:42;14.60;99.90
17567;DHT22;8901;52.088;5.084;2022-10-18T05:10:10;14.40;99.90
17567;DHT22;8901;52.088;5.084;2022-10-18T05:12:37;14.40;99.90
17567;DHT22;8901;52.088;5.084;2022-10-18T05:15:05;14.30;99.90
17567;DHT22;8901;52.088;5.084;2022-10-18T05:17:32;14.40;99.90
17567;DHT22;8901;52.088;5.084;2022-10-18T05:19:58;14.40;99.90
17567;DHT22;8901;52.088;5.084;2022-10-18T05:22:25;14.30;99.90
17567;DHT22;8901;52.088;5.084;2022-10-18T05:24:52;14.30;99.90
17567;DHT22;8901;52.088;5.084;2022-10-18T05:27:20;14.30;99.90
17567;DHT22;8901;52.088;5.084;2022-10-18T05:29:47;14.40;99.90
17567;DHT22;8901;52.088;5.084;2022-10-18T05:32:14;14.30;99.90
17567;DHT22;8901;52.088;5.084;2022-10-18T05:34:41;14.40;99.90
17567;DHT22;8901;52.088;5.084;2022-10-18T05:37:08;14.40;99.90
17567;DHT22;8901;52.088;5.084;2022-10-18T05:39:36;14.30;99.90
17567;DHT22;8901;52.088;5.084;2022-10-18T05:42:03;14.00;99.90
17567;DHT22;8901;52.088;5.084;2022-10-18T05:44:31;14.00;99.90
17567;DHT22;8901;52.088;5.084;2022-10-18T05:46:58;14.20;99.90
17567;DHT22;8901;52.088;5.084;2022-10-18T05:49:25;14.30;99.90
17567;DHT22;8901;52.088;5.084;2022-10-18T05:51:52;14.30;99.90
17567;DHT22;8901;52.088;5.084;2022-10-18T05:54:19;14.20;99.90
17567;DHT22;8901;52.088;5.084;2022-10-18T05:56:46;14.20;99.90
17567;DHT22;8901;52.088;5.084;2022-10-18T05:59:13;14.30;99.90
17567;DHT22;8901;52.088;5.084;2022-10-18T06:01:42;14.30;99.90
17567;DHT22;8901;52.088;5.084;2022-10-18T06:04:09;14.30;99.90
17567;DHT22;8901;52.088;5.084;2022-10-18T06:06:37;14.30;99.90
17567;DHT22;8901;52.088;5.084;2022-10-18T06:09:05;14.20;99.90
17567;DHT22;8901;52.088;5.084;2022-10-18T06:11:32;14.00;99.90
17567;DHT22;8901;52.088;5.084;2022-10-18T06:14:08;13.90;99.90
17567;DHT22;8901;52.088;5.084;2022-10-18T06:16:35;13.80;99.90
17567;DHT22;8901;52.088;5.084;2022-10-18T06:22:18;14.00;99.90
17567;DHT22;8901;52.088;5.084;2022-10-18T06:24:45;14.50;99.90
17567;DHT22;8901;52.088;5.084;2022-10-18T06:27:11;14.60;99.90
17567;DHT22;8901;52.088;5.084;2022-10-18T06:29:39;14.30;99.90
17567;DHT22;8901;52.088;5.084;2022-10-18T06:32:07;14.00;99.90
17567;DHT22;8901;52.088;5.084;2022-10-18T06:34:34;14.00;99.90
17567;DHT22;8901;52.088;5.084;2022-10-18T06:37:01;13.90;99.90
17567;DHT22;8901;52.088;5.084;2022-10-18T06:39:29;13.90;99.90
17567;DHT22;8901;52.088;5.084;2022-10-18T06:41:56;13.90;99.90
17567;DHT22;8901;52.088;5.084;2022-10-18T06:44:22;14.00;99.90
17567;DHT22;8901;52.088;5.084;2022-10-18T06:46:50;13.80;99.90
17567;DHT22;8901;52.088;5.084;2022-10-18T06:49:18;13.90;99.90
17567;DHT22;8901;52.088;5.084;2022-10-18T06:51:46;13.90;99.90
17567;DHT22;8901;52.088;5.084;2022-10-18T06:54:13;13.80;99.90
17567;DHT22;8901;52.088;5.084;2022-10-18T06:56:41;13.80;99.90
17567;DHT22;8901;52.088;5.084;2022-10-18T07:01:35;13.80;99.90
17567;DHT22;8901;52.088;5.084;2022-10-18T07:21:23;13.80;99.90
17567;DHT22;8901;52.088;5.084;2022-10-18T07:23:50;13.90;99.90
17567;DHT22;8901;52.088;5.084;2022-10-18T07:26:19;13.80;99.90
17567;DHT22;8901;52.088;5.084;2022-10-18T07:28:48;13.60;99.90
17567;DHT22;8901;52.088;5.084;2022-10-18T07:31:17;13.80;99.90
17567;DHT22;8901;52.088;5.084;2022-10-18T07:33:43;13.90;99.90
17567;DHT22;8901;52.088;5.084;2022-10-18T07:39:15;13.90;99.90
17567;DHT22;8901;52.088;5.084;2022-10-18T07:41:42;13.90;99.90
17567;DHT22;8901;52.088;5.084;2022-10-18T07:44:08;14.00;99.90
17567;DHT22;8901;52.088;5.084;2022-10-18T07:46:37;14.10;99.90
17567;DHT22;8901;52.088;5.084;2022-10-18T07:49:04;13.90;99.90
17567;DHT22;8901;52.088;5.084;2022-10-18T07:51:31;13.80;99.90
17567;DHT22;8901;52.088;5.084;2022-10-18T07:53:59;13.80;99.90
17567;DHT22;8901;52.088;5.084;2022-10-18T07:56:26;14.00;99.90
17567;DHT22;8901;52.088;5.084;2022-10-18T07:58:54;14.10;99.90
17567;DHT22;8901;52.088;5.084;2022-10-18T08:01:23;14.00;99.90
17567;DHT22;8901;52.088;5.084;2022-10-18T08:03:53;14.10;99.90
17567;DHT22;8901;52.088;5.084;2022-10-18T08:06:21;14.10;99.90
17567;DHT22;8901;52.088;5.084;2022-10-18T08:08:48;14.20;99.90
17567;DHT22;8901;52.088;5.084;2022-10-18T08:11:17;14.10;99.90
17567;DHT22;8901;52.088;5.084;2022-10-18T08:13:45;14.20;99.90
17567;DHT22;8901;52.088;5.084;2022-10-18T08:16:14;14.30;99.90
17567;DHT22;8901;52.088;5.084;2022-10-18T08:21:11;14.40;99.90
17567;DHT22;8901;52.088;5.084;2022-10-18T08:23:38;14.70;99.90
17567;DHT22;8901;52.088;5.084;2022-10-18T08:28:34;14.90;99.90
17567;DHT22;8901;52.088;5.084;2022-10-18T08:31:01;15.10;99.90
17567;DHT22;8901;52.088;5.084;2022-10-18T08:35:57;15.10;99.90
17567;DHT22;8901;52.088;5.084;2022-10-18T08:38:28;15.20;99.90
17567;DHT22;8901;52.088;5.084;2022-10-18T08:45:58;15.30;99.90
17567;DHT22;8901;52.088;5.084;2022-10-18T08:50:56;15.70;99.90
17567;DHT22;8901;52.088;5.084;2022-10-18T09:03:42;16.00;99.90
17567;DHT22;8901;52.088;5.084;2022-10-18T09:08:56;15.60;99.90
17567;DHT22;8901;52.088;5.084;2022-10-18T09:24:48;16.10;99.90
17567;DHT22;8901;52.088;5.084;2022-10-18T09:37:32;16.00;99.90
17567;DHT22;8901;52.088;5.084;2022-10-18T10:02:43;16.40;99.90
17567;DHT22;8901;52.088;5.084;2022-10-18T10:05:11;17.20;99.90
17567;DHT22;8901;52.088;5.084;2022-10-18T10:35:23;17.50;99.90
17567;DHT22;8901;52.088;5.084;2022-10-18T11:08:15;18.20;99.90
17567;DHT22;8901;52.088;5.084;2022-10-18T11:10:52;18.10;99.90
17567;DHT22;8901;52.088;5.084;2022-10-18T16:32:00;18.20;99.90
17567;DHT22;8901;52.088;5.084;2022-10-18T16:36:56;15.80;99.90
17567;DHT22;8901;52.088;5.084;2022-10-18T16:39:24;15.90;99.90
17567;DHT22;8901;52.088;5.084;2022-10-18T16:44:21;16.10;99.90
17567;DHT22;8901;52.088;5.084;2022-10-18T16:46:49;16.00;99.90
17567;DHT22;8901;52.088;5.084;2022-10-18T16:49:18;16.10;99.90
17567;DHT22;8901;52.088;5.084;2022-10-18T16:51:45;16.10;99.90
17567;DHT22;8901;52.088;5.084;2022-10-18T16:54:12;15.90;99.90
17567;DHT22;8901;52.088;5.084;2022-10-18T16:56:39;16.10;99.90
17567;DHT22;8901;52.088;5.084;2022-10-18T17:04:02;16.00;99.90
17567;DHT22;8901;52.088;5.084;2022-10-18T17:08:58;15.80;99.90
17567;DHT22;8901;52.088;5.084;2022-10-18T17:11:26;15.80;99.90
17567;DHT22;8901;52.088;5.084;2022-10-18T17:13:54;15.80;99.90
17567;DHT22;8901;52.088;5.084;2022-10-18T17:16:24;15.70;99.90
17567;DHT22;8901;52.088;5.084;2022-10-18T17:18:53;15.60;99.90
